createdAt,value
2022-12-28T00:03:18.207Z,81.6
2022-12-28T00:12:03.643Z,81.6
2022-12-28T00:17:39.800Z,81.7
2022-12-28T00:23:14.993Z,82
2022-12-28T00:28:51.200Z,82.3
2022-12-28T00:34:39.457Z,82.5
2022-12-28T00:40:24.664Z,81.6
2022-12-28T00:46:29.265Z,81.3
2022-12-28T00:52:02.091Z,81
2022-12-28T00:57:43.810Z,81.2
2022-12-28T01:03:22.264Z,81
2022-12-28T01:08:57.709Z,81.3
2022-12-28T01:14:32.872Z,80.9
2022-12-28T01:20:35.623Z,81
2022-12-28T01:26:15.637Z,80.9
2022-12-28T01:31:51.002Z,80.8
2022-12-28T01:37:40.205Z,80.7
2022-12-28T01:43:30.893Z,81.4
2022-12-28T01:49:28.216Z,81.4
2022-12-28T01:55:01.709Z,81.5
2022-12-28T02:00:37.798Z,81.4
2022-12-28T02:06:23.039Z,81.1
2022-12-28T02:11:58.695Z,81.2
2022-12-28T02:17:34.134Z,80.8
2022-12-28T02:23:21.325Z,81
2022-12-28T02:29:14.387Z,80.9
2022-12-28T02:34:58.545Z,80.8
2022-12-28T02:40:49.144Z,80.7
2022-12-28T02:46:46.392Z,80.6
2022-12-28T02:52:19.395Z,80.6
2022-12-28T02:57:57.237Z,80.4
2022-12-28T03:03:38.372Z,80
2022-12-28T03:09:16.019Z,80
2022-12-28T03:14:51.188Z,79.6
2022-12-28T03:20:47.406Z,79.7
2022-12-28T03:26:23.465Z,79.2
2022-12-28T03:32:03.010Z,79.6
2022-12-28T03:37:38.523Z,79.2
2022-12-28T03:43:21.685Z,79.2
2022-12-28T03:49:39.308Z,79.3
2022-12-28T03:55:14.427Z,79.4
2022-12-28T04:01:11.907Z,79.3
2022-12-28T04:07:16.823Z,79.4
2022-12-28T04:13:17.207Z,79.4
2022-12-28T04:18:54.776Z,79.2
2022-12-28T04:24:29.892Z,79
2022-12-28T04:30:06.554Z,79.6
2022-12-28T04:35:43.880Z,79.5
2022-12-28T04:42:01.162Z,79.4
2022-12-28T04:48:00.544Z,79.2
2022-12-28T04:53:34.420Z,79.6
2022-12-28T04:59:09.371Z,79.2
2022-12-28T05:04:53.336Z,79
2022-12-28T05:10:28.401Z,78.9
2022-12-28T05:16:12.720Z,78.7
2022-12-28T05:22:04.911Z,79.1
2022-12-28T05:27:42.831Z,78.6
2022-12-28T05:33:18.726Z,78.9
2022-12-28T05:38:53.850Z,79.1
2022-12-28T05:44:29.972Z,79.6
2022-12-28T05:50:05.421Z,79.2
2022-12-28T05:55:42.089Z,79.1
2022-12-28T06:01:17.950Z,79.2
2022-12-28T06:06:53.876Z,78.9
2022-12-28T06:12:29.258Z,79.4
2022-12-28T06:18:11.027Z,78.7
2022-12-28T06:23:54.788Z,78.6
2022-12-28T06:29:29.657Z,79.1
2022-12-28T06:35:16.474Z,79.2
2022-12-28T06:41:21.465Z,79.2
2022-12-28T06:47:27.655Z,79.6
2022-12-28T06:53:00.330Z,79.3
2022-12-28T06:58:35.629Z,79.6
2022-12-28T07:04:10.693Z,79.4
2022-12-28T07:09:47.447Z,79.2
2022-12-28T07:15:22.595Z,79.4
2022-12-28T07:20:57.818Z,78.7
2022-12-28T07:27:03.691Z,78.9
2022-12-28T07:33:05.191Z,79.6
2022-12-28T07:38:40.339Z,83
2022-12-28T07:44:15.467Z,79.2
2022-12-28T07:49:51.705Z,82.8
2022-12-28T07:55:58.452Z,83
2022-12-28T08:01:45.981Z,83.5
2022-12-28T08:07:37.611Z,83
2022-12-28T08:13:21.876Z,84.4
2022-12-28T08:19:07.274Z,84
2022-12-28T08:24:51.995Z,83.8
2022-12-28T08:30:30.803Z,83
2022-12-28T08:36:18.867Z,83.5
2022-12-28T08:42:01.155Z,82.4
2022-12-28T08:48:52.345Z,82
2022-12-28T08:54:25.055Z,83.2
2022-12-28T09:00:01.521Z,79.9
2022-12-28T09:05:40.320Z,79.6
2022-12-28T09:12:00.859Z,79.7
2022-12-28T09:17:57.851Z,79.2
2022-12-28T09:23:40.090Z,79.7
2022-12-28T09:29:43.486Z,80.6
2022-12-28T09:35:25.514Z,81
2022-12-28T09:41:10.478Z,80.3
2022-12-28T09:46:49.392Z,80.4
2022-12-28T09:52:25.440Z,76.3
2022-12-28T09:58:01.090Z,76.3
2022-12-28T10:03:36.983Z,73.1
2022-12-28T10:09:12.456Z,73.3
2022-12-28T10:14:47.873Z,76.2
2022-12-28T10:20:26.736Z,76.7
2022-12-28T10:26:10.558Z,77.1
2022-12-28T10:31:45.986Z,76.2
2022-12-28T10:37:21.573Z,75.5
2022-12-28T10:42:57.244Z,75.1
2022-12-28T10:48:32.700Z,74.9
2022-12-28T10:54:07.879Z,73.5
2022-12-28T11:00:06.406Z,73.3
2022-12-28T11:05:41.766Z,73.8
2022-12-28T11:11:19.633Z,72.4
2022-12-28T11:16:57.398Z,67.9
2022-12-28T11:22:35.822Z,66.5
2022-12-28T11:28:15.588Z,64.6
2022-12-28T11:33:59.356Z,64.1
2022-12-28T11:39:35.941Z,59
2022-12-28T11:45:19.981Z,60.2
2022-12-28T11:50:58.855Z,60.7
2022-12-28T11:56:36.297Z,64.2
2022-12-28T12:02:11.783Z,64.8
2022-12-28T12:07:52.558Z,63.3
2022-12-28T12:13:28.305Z,60.2
2022-12-28T12:19:03.505Z,56.7
2022-12-28T12:24:40.491Z,56.8
2022-12-28T12:30:16.779Z,55.3
2022-12-28T12:35:57.223Z,54.9
2022-12-28T12:41:32.362Z,53.5
2022-12-28T12:47:32.563Z,48.4
2022-12-28T12:53:06.657Z,46
2022-12-28T12:58:42.275Z,50.4
2022-12-28T13:04:17.617Z,48.1
2022-12-28T13:09:53.653Z,47.3
2022-12-28T13:15:38.141Z,46.2
2022-12-28T13:21:15.077Z,46.7
2022-12-28T13:26:51.010Z,48.9
2022-12-28T13:32:38.205Z,43.4
2022-12-28T13:38:14.007Z,40.9
2022-12-28T13:43:49.458Z,39.7
2022-12-28T13:49:47.760Z,40.9
2022-12-28T13:55:22.003Z,39
2022-12-28T14:00:57.528Z,35.5
2022-12-28T14:06:35.825Z,36.8
2022-12-28T14:12:12.120Z,34.8
2022-12-28T14:17:54.665Z,33.4
2022-12-28T14:23:50.534Z,31.7
2022-12-28T14:29:39.811Z,28.2
2022-12-28T14:35:23.720Z,31.2
2022-12-28T14:41:01.670Z,36.4
2022-12-28T14:47:00.104Z,36.5
2022-12-28T14:52:34.585Z,35.5
2022-12-28T14:58:09.609Z,36
2022-12-28T15:03:45.572Z,40.7
2022-12-28T15:09:22.215Z,37.8
2022-12-28T15:14:57.726Z,40.1
2022-12-28T15:20:33.483Z,42
2022-12-28T15:26:13.749Z,41.3
2022-12-28T15:31:59.993Z,42.6
2022-12-28T15:37:49.182Z,41.9
2022-12-28T15:43:24.757Z,40.1
2022-12-28T15:49:42.329Z,43.6
2022-12-28T15:55:18.074Z,42.3
2022-12-28T16:00:58.834Z,44.3
2022-12-28T16:06:45.391Z,47.4
2022-12-28T16:12:21.692Z,46.5
2022-12-28T16:18:05.749Z,47.6
2022-12-28T16:24:10.069Z,49
2022-12-28T16:29:58.660Z,45.3
2022-12-28T16:35:45.029Z,47.8
2022-12-28T16:41:19.872Z,51.1
2022-12-28T16:46:55.263Z,47.8
2022-12-28T16:52:30.468Z,48.1
2022-12-28T16:58:06.356Z,50.4
2022-12-28T17:03:42.677Z,51.7
2022-12-28T17:09:18.818Z,50.9
2022-12-28T17:15:05.888Z,49.1
2022-12-28T17:21:07.290Z,48.7
2022-12-28T17:26:46.779Z,49.1
2022-12-28T17:32:24.005Z,49
2022-12-28T17:38:06.989Z,50.3
2022-12-28T17:43:42.383Z,50.4
2022-12-28T17:49:17.541Z,49.6
2022-12-28T17:54:53.895Z,50
2022-12-28T18:00:38.143Z,50.7
2022-12-28T18:06:22.483Z,52
2022-12-28T18:11:58.701Z,51.1
2022-12-28T18:17:36.529Z,51.1
2022-12-28T18:23:21.579Z,51.1
2022-12-28T18:30:15.637Z,51.4
2022-12-28T18:35:50.408Z,53
2022-12-28T18:41:34.547Z,53.7
2022-12-28T18:47:20.343Z,54.7
2022-12-28T18:52:55.267Z,54.3
2022-12-28T18:58:39.698Z,55.1
2022-12-28T19:04:15.979Z,56.4
2022-12-28T19:09:58.451Z,57
2022-12-28T19:15:49.813Z,56.2
2022-12-28T19:21:27.089Z,56.4
2022-12-28T19:27:02.437Z,56.8
2022-12-28T19:32:41.337Z,56.5
2022-12-28T19:38:21.000Z,56.5
2022-12-28T19:44:06.736Z,56.1
2022-12-28T19:50:08.803Z,56.9
2022-12-28T19:56:08.314Z,56.5
2022-12-28T20:01:43.952Z,55.7
2022-12-28T20:07:21.110Z,55.9
2022-12-28T20:12:55.991Z,54.5
2022-12-28T20:18:32.151Z,56
2022-12-28T20:24:20.448Z,57.1
2022-12-28T20:30:10.040Z,56
2022-12-28T20:35:47.635Z,58.1
2022-12-28T20:41:26.224Z,58.8
2022-12-28T20:47:06.939Z,60.4
2022-12-28T20:52:46.867Z,60.6
2022-12-28T20:58:45.820Z,60.2
2022-12-28T21:05:19.385Z,60.5
2022-12-28T21:10:57.239Z,60.1
2022-12-28T21:16:44.784Z,59.9
2022-12-28T21:22:42.593Z,61
2022-12-28T21:28:18.978Z,60.9
2022-12-28T21:34:39.616Z,61.1
2022-12-28T21:40:15.188Z,61.1
2022-12-28T21:45:53.606Z,61.5
2022-12-28T21:51:39.542Z,62.3
2022-12-28T21:58:00.140Z,62.5
2022-12-28T22:03:38.445Z,62.3
2022-12-28T22:09:35.007Z,62.4
2022-12-28T22:15:10.270Z,62.4
2022-12-28T22:21:11.508Z,62.5
2022-12-28T22:27:03.038Z,63.6
2022-12-28T22:32:43.255Z,64.3
2022-12-28T22:38:18.459Z,63.5
2022-12-28T22:43:59.440Z,62.8
2022-12-28T22:49:56.807Z,64
2022-12-28T22:55:29.539Z,63.6
2022-12-28T23:01:11.009Z,63.4
2022-12-28T23:07:04.437Z,63.2
2022-12-28T23:12:46.275Z,63.2
2022-12-28T23:18:25.557Z,62.9
2022-12-28T23:24:01.188Z,63.6
2022-12-28T23:29:42.210Z,63.9
2022-12-28T23:35:39.268Z,64.2
2022-12-28T23:41:35.995Z,64.5
2022-12-28T23:47:56.693Z,64.8
2022-12-28T23:53:30.492Z,64.7
2022-12-28T23:59:10.964Z,64.4
